createdAt,value
2019-05-11T00:00:31.315Z,96558.72
2019-05-11T00:03:02.695Z,96549.30
2019-05-11T00:05:34.091Z,96541.11
2019-05-11T00:08:07.750Z,96537.69
2019-05-11T00:10:39.177Z,96542.41
2019-05-11T00:13:10.512Z,96535.54
2019-05-11T00:15:41.821Z,96539.84
2019-05-11T00:18:13.160Z,96523.09
2019-05-11T00:20:44.976Z,96526.52
2019-05-11T00:23:16.608Z,96523.09
2019-05-11T00:25:48.109Z,96529.95
2019-05-11T00:28:19.411Z,96522.65
2019-05-11T00:30:51.003Z,96517.50
2019-05-11T00:33:22.844Z,96508.05
2019-05-11T00:35:54.503Z,96502.87
2019-05-11T00:38:27.671Z,96500.71
2019-05-11T00:40:59.437Z,96492.98
2019-05-11T00:43:31.168Z,96487.42
2019-05-11T00:46:02.757Z,96486.14
2019-05-11T00:48:35.568Z,96476.66
2019-05-11T00:51:07.424Z,96465.48
2019-05-11T00:53:38.920Z,96453.02
2019-05-11T00:56:10.672Z,96453.89
2019-05-11T00:58:45.000Z,96450.05
2019-05-11T01:01:20.368Z,96460.38
2019-05-11T01:03:51.969Z,96459.53
2019-05-11T01:06:23.309Z,96454.34
2019-05-11T01:08:54.693Z,96457.78
2019-05-11T01:11:26.833Z,96455.20
2019-05-11T01:13:58.063Z,96458.17
2019-05-11T01:16:29.586Z,96462.89
2019-05-11T01:19:01.115Z,96460.75
2019-05-11T01:21:32.458Z,96460.31
2019-05-11T01:24:03.837Z,96463.77
2019-05-11T01:26:35.192Z,96469.80
2019-05-11T01:29:06.675Z,96471.92
2019-05-11T01:31:39.480Z,96472.34
2019-05-11T01:34:10.949Z,96465.91
2019-05-11T01:36:42.710Z,96467.64
2019-05-11T01:39:14.171Z,96458.59
2019-05-11T01:41:45.769Z,96470.63
2019-05-11T01:44:17.486Z,96471.02
2019-05-11T01:46:48.805Z,96459.02
2019-05-11T01:49:20.170Z,96458.19
2019-05-11T01:51:51.794Z,96464.64
2019-05-11T01:54:23.188Z,96464.60
2019-05-11T01:56:54.656Z,96451.25
2019-05-11T01:59:25.905Z,96431.97
2019-05-11T02:01:57.255Z,96437.60
2019-05-11T02:04:28.484Z,96433.70
2019-05-11T02:07:00.310Z,96430.73
2019-05-11T02:09:31.799Z,96426.02
2019-05-11T02:12:03.236Z,96435.45
2019-05-11T02:14:34.640Z,96432.46
2019-05-11T02:17:05.983Z,96423.42
2019-05-11T02:19:37.352Z,96409.66
2019-05-11T02:22:08.658Z,96401.06
2019-05-11T02:24:39.901Z,96399.34
2019-05-11T02:27:11.214Z,96392.47
2019-05-11T02:29:42.785Z,96393.31
2019-05-11T02:32:14.212Z,96410.05
2019-05-11T02:34:45.419Z,96422.06
2019-05-11T02:37:17.221Z,96431.92
2019-05-11T02:39:48.711Z,96424.59
2019-05-11T02:42:20.074Z,96414.71
2019-05-11T02:44:51.774Z,96413.46
2019-05-11T02:47:23.046Z,96401.86
2019-05-11T02:49:54.443Z,96396.30
2019-05-11T02:52:26.456Z,96382.58
2019-05-11T02:55:00.180Z,96389.05
2019-05-11T02:57:31.869Z,96388.62
2019-05-11T03:00:03.203Z,96386.48
2019-05-11T03:02:35.896Z,96381.32
2019-05-11T03:05:08.517Z,96374.89
2019-05-11T03:07:40.046Z,96366.30
2019-05-11T03:10:11.647Z,96351.28
2019-05-11T03:12:43.005Z,96344.84
2019-05-11T03:15:14.876Z,96347.39
2019-05-11T03:17:46.140Z,96356.45
2019-05-11T03:20:17.535Z,96356.88
2019-05-11T03:22:48.872Z,96346.58
2019-05-11T03:25:20.296Z,96334.52
2019-05-11T03:27:51.679Z,96328.08
2019-05-11T03:30:24.022Z,96322.89
2019-05-11T03:32:55.635Z,96320.33
2019-05-11T03:35:27.081Z,96320.77
2019-05-11T03:37:58.474Z,96332.38
2019-05-11T03:40:29.762Z,96323.80
2019-05-11T03:43:01.051Z,96318.20
2019-05-11T03:45:32.789Z,96311.28
2019-05-11T03:48:04.468Z,96308.30
2019-05-11T03:50:36.094Z,96299.72
2019-05-11T03:53:07.539Z,96302.33
2019-05-11T03:55:39.341Z,96301.47
2019-05-11T03:58:10.716Z,96301.89
2019-05-11T04:00:42.264Z,96295.02
2019-05-11T04:03:13.552Z,96298.00
2019-05-11T04:05:45.226Z,96306.12
2019-05-11T04:08:16.493Z,96312.98
2019-05-11T04:10:47.743Z,96316.83
2019-05-11T04:13:19.055Z,96325.41
2019-05-11T04:15:51.615Z,96322.87
2019-05-11T04:18:23.087Z,96338.33
2019-05-11T04:20:54.547Z,96340.03
2019-05-11T04:23:25.821Z,96335.30
2019-05-11T04:25:56.988Z,96325.85
2019-05-11T04:28:28.347Z,96328.89
2019-05-11T04:30:59.862Z,96317.72
2019-05-11T04:33:33.178Z,96313.84
2019-05-11T04:36:04.210Z,96314.29
2019-05-11T04:38:35.767Z,96314.30
2019-05-11T04:41:07.063Z,96314.73
2019-05-11T04:43:38.241Z,96308.70
2019-05-11T04:46:09.433Z,96311.27
2019-05-11T04:48:40.799Z,96310.38
2019-05-11T04:51:12.288Z,96326.65
2019-05-11T04:53:43.611Z,96324.47
2019-05-11T04:56:14.861Z,96323.64
2019-05-11T04:58:46.080Z,96323.22
2019-05-11T05:01:17.341Z,96312.91
2019-05-11T05:03:54.463Z,96314.20
2019-05-11T05:06:22.782Z,96306.02
2019-05-11T05:08:58.214Z,96318.88
2019-05-11T05:11:30.730Z,96326.17
2019-05-11T05:14:02.277Z,96322.33
2019-05-11T05:16:33.365Z,96330.48
2019-05-11T05:19:05.385Z,96331.76
2019-05-11T05:21:37.007Z,96327.47
2019-05-11T05:24:08.325Z,96330.88
2019-05-11T05:26:39.574Z,96325.28
2019-05-11T05:29:10.854Z,96326.13
2019-05-11T05:31:42.422Z,96323.52
2019-05-11T05:34:13.759Z,96322.65
2019-05-11T05:36:45.080Z,96311.45
2019-05-11T05:39:16.354Z,96304.58
2019-05-11T05:41:56.745Z,96312.27
2019-05-11T05:44:21.218Z,96312.69
2019-05-11T05:46:53.366Z,96308.87
2019-05-11T05:49:24.669Z,96320.47
2019-05-11T05:51:58.443Z,96310.98
2019-05-11T05:54:29.205Z,96307.59
2019-05-11T05:57:01.118Z,96313.61
2019-05-11T05:59:32.701Z,96304.58
2019-05-11T06:02:04.481Z,96295.09
2019-05-11T06:04:35.782Z,96283.89
2019-05-11T06:07:07.417Z,96294.17
2019-05-11T06:09:38.617Z,96284.70
2019-05-11T06:12:09.953Z,96282.53
2019-05-11T06:14:41.152Z,96286.39
2019-05-11T06:17:12.562Z,96290.20
2019-05-11T06:19:44.059Z,96292.32
2019-05-11T06:22:15.567Z,96292.22
2019-05-11T06:24:46.792Z,96291.56
2019-05-11T06:27:18.672Z,96287.41
2019-05-11T06:29:49.974Z,96274.37
2019-05-11T06:32:22.554Z,96280.02
2019-05-11T06:34:54.211Z,96272.47
2019-05-11T06:37:25.744Z,96279.39
2019-05-11T06:39:56.964Z,96267.06
2019-05-11T06:42:28.450Z,96269.19
2019-05-11T06:45:00.018Z,96277.55
2019-05-11T06:47:32.701Z,96278.52
2019-05-11T06:50:04.573Z,96282.11
2019-05-11T06:52:37.024Z,96274.87
2019-05-11T06:55:08.754Z,96292.31
2019-05-11T06:57:39.920Z,96293.65
2019-05-11T07:00:11.745Z,96292.69
2019-05-11T07:02:43.159Z,96297.50
2019-05-11T07:05:15.537Z,96295.75
2019-05-11T07:07:48.065Z,96307.19
2019-05-11T07:10:19.666Z,96321.23
2019-05-11T07:12:51.168Z,96322.33
2019-05-11T07:15:22.609Z,96323.45
2019-05-11T07:17:53.866Z,96335.37
2019-05-11T07:20:25.310Z,96339.69
2019-05-11T07:22:57.625Z,96339.62
2019-05-11T07:25:29.237Z,96327.54
2019-05-11T07:28:00.864Z,96317.97
2019-05-11T07:30:33.589Z,96306.36
2019-05-11T07:33:07.979Z,96305.61
2019-05-11T07:35:39.197Z,96301.95
2019-05-11T07:38:11.996Z,96294.97
2019-05-11T07:40:43.205Z,96287.52
2019-05-11T07:43:15.251Z,96284.25
2019-05-11T07:45:47.951Z,96293.55
2019-05-11T07:48:22.051Z,96281.56
2019-05-11T07:50:53.833Z,96284.28
2019-05-11T07:53:27.929Z,96279.47
2019-05-11T07:56:00.283Z,96267.84
2019-05-11T07:58:32.118Z,96271.44
2019-05-11T08:01:03.373Z,96273.50
2019-05-11T08:03:35.005Z,96276.47
2019-05-11T08:06:08.684Z,96275.22
2019-05-11T08:08:39.992Z,96279.35
2019-05-11T08:11:12.478Z,96272.84
2019-05-11T08:13:44.403Z,96266.13
2019-05-11T08:16:18.439Z,96277.52
2019-05-11T08:18:50.264Z,96276.72
2019-05-11T08:21:21.887Z,96269.73
2019-05-11T08:23:53.305Z,96268.32
2019-05-11T08:26:25.408Z,96266.40
2019-05-11T08:28:57.953Z,96271.67
2019-05-11T08:31:30.469Z,96255.25
2019-05-11T08:34:02.464Z,96254.28
2019-05-11T08:36:34.245Z,96255.96
2019-05-11T08:39:08.231Z,96238.18
2019-05-11T08:41:39.664Z,96246.44
2019-05-11T08:44:18.783Z,96234.45
2019-05-11T08:46:51.615Z,96242.23
2019-05-11T08:49:24.072Z,96258.83
2019-05-11T08:51:57.875Z,96250.05
2019-05-11T08:54:30.174Z,96250.34
2019-05-11T08:57:03.490Z,96247.94
2019-05-11T08:59:37.925Z,96243.70
2019-05-11T09:02:08.916Z,96249.75
2019-05-11T09:04:42.033Z,96237.81
2019-05-11T09:07:14.912Z,96239.60
2019-05-11T09:09:48.357Z,96234.89
2019-05-11T09:12:20.281Z,96243.26
2019-05-11T09:14:51.931Z,96240.73
2019-05-11T09:17:24.225Z,96252.50
2019-05-11T09:19:58.041Z,96234.23
2019-05-11T09:22:29.117Z,96235.73
2019-05-11T09:25:00.386Z,96232.05
2019-05-11T09:27:31.866Z,96237.16
2019-05-11T09:30:03.291Z,96224.73
2019-05-11T09:32:38.279Z,96241.35
2019-05-11T09:35:09.175Z,96242.48
2019-05-11T09:37:40.367Z,96248.86
2019-05-11T09:40:12.580Z,96241.06
2019-05-11T09:42:44.566Z,96241.67
2019-05-11T09:45:18.429Z,96243.19
2019-05-11T09:47:49.416Z,96251.22
2019-05-11T09:50:20.862Z,96243.34
2019-05-11T09:52:52.624Z,96249.92
2019-05-11T09:55:23.949Z,96247.95
2019-05-11T09:57:57.928Z,96244.92
2019-05-11T10:00:30.866Z,96238.30
2019-05-11T10:03:02.203Z,96229.23
2019-05-11T10:05:33.940Z,96241.94
2019-05-11T10:08:07.727Z,96226.28
2019-05-11T10:10:39.676Z,96234.27
2019-05-11T10:13:10.967Z,96231.08
2019-05-11T10:15:42.521Z,96246.23
2019-05-11T10:18:14.370Z,96255.59
2019-05-11T10:20:48.020Z,96252.78
2019-05-11T10:23:18.764Z,96256.11
2019-05-11T10:25:50.417Z,96266.55
2019-05-11T10:28:22.033Z,96255.00
2019-05-11T10:30:53.407Z,96255.90
2019-05-11T10:33:25.259Z,96270.52
2019-05-11T10:35:58.811Z,96257.57
2019-05-11T10:38:29.990Z,96250.73
2019-05-11T10:41:01.311Z,96246.52
2019-05-11T10:43:33.650Z,96242.29
2019-05-11T10:46:17.021Z,96255.34
2019-05-11T10:48:39.005Z,96236.05
2019-05-11T10:51:10.537Z,96229.63
2019-05-11T10:53:42.057Z,96230.74
2019-05-11T10:56:13.575Z,96238.20
2019-05-11T10:58:45.427Z,96239.88
2019-05-11T11:01:18.174Z,96239.36
2019-05-11T11:03:49.813Z,96245.42
2019-05-11T11:06:21.165Z,96245.52
2019-05-11T11:08:52.588Z,96247.94
2019-05-11T11:11:23.920Z,96270.04
2019-05-11T11:13:55.166Z,96256.86
2019-05-11T11:16:36.758Z,96249.61
2019-05-11T11:18:59.750Z,96266.47
2019-05-11T11:21:31.292Z,96270.73
2019-05-11T11:24:02.581Z,96268.53
2019-05-11T11:26:34.155Z,96258.18
2019-05-11T11:29:05.410Z,96252.35
2019-05-11T11:31:37.996Z,96243.73
2019-05-11T11:34:10.769Z,96231.28
2019-05-11T11:36:43.209Z,96225.58
2019-05-11T11:39:14.852Z,96248.86
2019-05-11T11:41:48.536Z,96262.19
2019-05-11T11:44:20.122Z,96254.96
2019-05-11T11:46:55.154Z,96238.46
2019-05-11T11:49:24.499Z,96247.03
2019-05-11T11:51:57.797Z,96257.16
2019-05-11T11:54:28.981Z,96243.89
2019-05-11T11:57:00.562Z,96266.68
2019-05-11T11:59:31.810Z,96250.15
2019-05-11T12:02:03.078Z,96245.45
2019-05-11T12:04:34.475Z,96245.52
2019-05-11T12:07:08.377Z,96238.24
2019-05-11T12:09:39.357Z,96224.53
2019-05-11T12:12:11.370Z,96224.33
2019-05-11T12:14:43.270Z,96239.72
2019-05-11T12:17:14.997Z,96235.89
2019-05-11T12:19:47.783Z,96236.36
2019-05-11T12:22:19.443Z,96242.03
2019-05-11T12:24:53.637Z,96244.05
2019-05-11T12:27:25.130Z,96255.95
2019-05-11T12:29:58.180Z,96255.31
2019-05-11T12:32:43.728Z,96259.55
2019-05-11T12:35:17.794Z,96275.34
2019-05-11T12:37:49.218Z,96268.11
2019-05-11T12:40:21.252Z,96276.83
2019-05-11T12:42:52.891Z,96269.59
2019-05-11T12:45:24.482Z,96273.86
2019-05-11T12:47:55.744Z,96263.07
2019-05-11T12:50:28.656Z,96267.34
2019-05-11T12:53:00.045Z,96270.26
2019-05-11T12:55:31.505Z,96267.30
2019-05-11T12:58:03.528Z,96271.66
2019-05-11T13:00:35.399Z,96268.54
2019-05-11T13:03:08.031Z,96272.05
2019-05-11T13:05:39.845Z,96253.48
2019-05-11T13:08:11.596Z,96235.54
2019-05-11T13:10:43.350Z,96251.09
2019-05-11T13:13:15.018Z,96246.52
2019-05-11T13:15:47.910Z,96246.02
2019-05-11T13:18:19.899Z,96229.49
2019-05-11T13:20:51.189Z,96226.72
2019-05-11T13:23:23.002Z,96216.80
2019-05-11T13:25:54.327Z,96211.11
2019-05-11T13:28:25.620Z,96225.06
2019-05-11T13:30:57.976Z,96228.21
2019-05-11T13:33:29.548Z,96231.61
2019-05-11T13:36:00.895Z,96238.83
2019-05-11T13:38:32.554Z,96243.28
2019-05-11T13:41:04.755Z,96251.27
2019-05-11T13:43:38.414Z,96248.05
2019-05-11T13:46:09.456Z,96242.87
2019-05-11T13:48:40.829Z,96235.75
2019-05-11T13:51:12.134Z,96245.70
2019-05-11T13:53:43.821Z,96244.81
2019-05-11T13:56:15.183Z,96256.30
2019-05-11T13:58:48.681Z,96276.80
2019-05-11T14:01:19.849Z,96291.56
2019-05-11T14:03:51.571Z,96294.38
2019-05-11T14:06:23.440Z,96284.96
2019-05-11T14:08:55.078Z,96298.09
2019-05-11T14:11:28.490Z,96296.25
2019-05-11T14:13:59.728Z,96297.97
2019-05-11T14:16:31.774Z,96298.48
2019-05-11T14:19:03.284Z,96315.17
2019-05-11T14:21:34.589Z,96316.28
2019-05-11T14:24:07.763Z,96326.65
2019-05-11T14:26:39.198Z,96325.20
2019-05-11T14:29:10.514Z,96336.26
2019-05-11T14:31:42.369Z,96333.42
2019-05-11T14:34:13.711Z,96341.92
2019-05-11T14:36:47.803Z,96348.58
2019-05-11T14:39:19.104Z,96347.28
2019-05-11T14:41:50.995Z,96351.42
2019-05-11T14:44:22.562Z,96349.02
2019-05-11T14:46:54.070Z,96355.71
2019-05-11T14:49:27.552Z,96358.70
2019-05-11T14:51:59.281Z,96361.35
2019-05-11T14:54:30.671Z,96379.45
2019-05-11T14:57:01.901Z,96376.67
2019-05-11T14:59:33.437Z,96387.94
2019-05-11T15:02:23.781Z,96392.51
2019-05-11T15:04:55.009Z,96386.14
2019-05-11T15:07:28.319Z,96382.66
2019-05-11T15:09:59.772Z,96395.13
2019-05-11T15:12:30.970Z,96399.15
2019-05-11T15:15:02.449Z,96392.58
2019-05-11T15:17:34.419Z,96401.61
2019-05-11T15:20:08.271Z,96398.41
2019-05-11T15:22:39.758Z,96410.55
2019-05-11T15:25:19.317Z,96410.53
2019-05-11T15:27:50.781Z,96413.05
2019-05-11T15:30:23.064Z,96413.80
2019-05-11T15:32:54.790Z,96434.28
2019-05-11T15:35:28.272Z,96443.59
2019-05-11T15:37:59.177Z,96446.11
2019-05-11T15:40:30.901Z,96456.42
2019-05-11T15:43:02.594Z,96455.03
2019-05-11T15:45:33.886Z,96457.38
2019-05-11T15:48:05.347Z,96464.03
2019-05-11T15:50:39.715Z,96460.61
2019-05-11T15:53:10.236Z,96472.34
2019-05-11T15:55:42.855Z,96479.56
2019-05-11T15:58:14.953Z,96468.83
2019-05-11T16:00:48.365Z,96470.44
2019-05-11T16:03:19.657Z,96480.02
2019-05-11T16:05:51.009Z,96485.23
2019-05-11T16:08:22.255Z,96497.83
2019-05-11T16:10:53.580Z,96504.75
2019-05-11T16:13:24.824Z,96499.77
2019-05-11T16:15:57.730Z,96510.33
2019-05-11T16:18:29.143Z,96510.36
2019-05-11T16:21:00.602Z,96526.73
2019-05-11T16:23:32.080Z,96531.09
2019-05-11T16:26:03.545Z,96548.67
2019-05-11T16:28:35.216Z,96574.98
2019-05-11T16:31:08.930Z,96598.86
2019-05-11T16:33:39.949Z,96628.38
2019-05-11T16:36:11.594Z,96632.11
2019-05-11T16:38:42.971Z,96625.30
2019-05-11T16:41:14.331Z,96628.75
2019-05-11T16:43:47.881Z,96636.08
2019-05-11T16:46:18.726Z,96642.53
2019-05-11T16:48:50.072Z,96646.38
2019-05-11T16:51:21.357Z,96656.67
2019-05-11T16:53:52.538Z,96650.23
2019-05-11T16:56:23.713Z,96654.98
2019-05-11T16:58:55.149Z,96668.71
2019-05-11T17:01:27.527Z,96668.73
2019-05-11T17:03:58.910Z,96677.75
2019-05-11T17:06:31.821Z,96685.50
2019-05-11T17:09:03.275Z,96684.63
2019-05-11T17:11:34.771Z,96682.48
2019-05-11T17:14:08.352Z,96686.33
2019-05-11T17:16:39.886Z,96694.92
2019-05-11T17:19:11.149Z,96697.49
2019-05-11T17:21:42.624Z,96708.23
2019-05-11T17:24:13.981Z,96710.81
2019-05-11T17:26:47.818Z,96713.41
2019-05-11T17:29:19.523Z,96710.38
2019-05-11T17:31:51.730Z,96699.66
2019-05-11T17:34:23.239Z,96696.22
2019-05-11T17:36:57.248Z,96697.91
2019-05-11T17:39:28.382Z,96694.48
2019-05-11T17:41:59.631Z,96696.66
2019-05-11T17:44:31.069Z,96707.82
2019-05-11T17:47:03.849Z,96709.97
2019-05-11T17:49:37.802Z,96719.83
2019-05-11T17:52:08.574Z,96718.14
2019-05-11T17:54:39.890Z,96719.86
2019-05-11T17:57:12.179Z,96725.88
2019-05-11T17:59:43.895Z,96730.15
2019-05-11T18:02:15.165Z,96734.41
2019-05-11T18:04:49.177Z,96737.43
2019-05-11T18:07:27.032Z,96730.98
2019-05-11T18:09:52.734Z,96740.45
2019-05-11T18:12:24.068Z,96731.44
2019-05-11T18:14:55.525Z,96728.02
2019-05-11T18:17:26.710Z,96728.02
2019-05-11T18:20:12.450Z,96724.97
2019-05-11T18:22:31.339Z,96731.40
2019-05-11T18:25:02.705Z,96742.14
2019-05-11T18:27:34.079Z,96741.30
2019-05-11T18:30:05.693Z,96752.02
2019-05-11T18:32:39.751Z,96749.05
2019-05-11T18:35:10.316Z,96756.78
2019-05-11T18:37:41.722Z,96761.08
2019-05-11T18:40:13.524Z,96765.36
2019-05-11T18:42:44.912Z,96770.09
2019-05-11T18:45:18.582Z,96764.97
2019-05-11T18:47:49.610Z,96771.39
2019-05-11T18:50:30.617Z,96773.98
2019-05-11T18:52:54.086Z,96771.45
2019-05-11T18:55:25.380Z,96767.15
2019-05-11T18:57:58.101Z,96775.75
2019-05-11T19:00:29.452Z,96775.73
2019-05-11T19:03:00.728Z,96776.59
2019-05-11T19:05:32.099Z,96772.75
2019-05-11T19:08:03.516Z,96768.87
2019-05-11T19:10:35.505Z,96771.02
2019-05-11T19:13:06.693Z,96775.28
2019-05-11T19:15:38.812Z,96786.86
2019-05-11T19:18:11.114Z,96796.70
2019-05-11T19:20:45.841Z,96812.16
2019-05-11T19:23:15.663Z,96818.98
2019-05-11T19:25:48.075Z,96824.13
2019-05-11T19:28:19.495Z,96823.75
2019-05-11T19:30:51.196Z,96819.91
2019-05-11T19:33:22.746Z,96821.17
2019-05-11T19:35:54.263Z,96826.33
2019-05-11T19:38:27.953Z,96823.65
2019-05-11T19:40:59.056Z,96822.38
2019-05-11T19:43:30.383Z,96821.14
2019-05-11T19:46:01.720Z,96834.88
2019-05-11T19:48:32.926Z,96835.30
2019-05-11T19:51:08.057Z,96833.17
2019-05-11T19:53:38.653Z,96836.63
2019-05-11T19:56:10.211Z,96828.06
2019-05-11T19:58:41.382Z,96823.78
2019-05-11T20:01:12.808Z,96829.70
2019-05-11T20:03:44.350Z,96823.70
2019-05-11T20:06:15.731Z,96821.63
2019-05-11T20:08:47.374Z,96815.19
2019-05-11T20:11:18.757Z,96826.75
2019-05-11T20:13:50.234Z,96829.33
2019-05-11T20:16:21.716Z,96823.75
2019-05-11T20:18:53.203Z,96833.58
2019-05-11T20:21:24.786Z,96834.83
2019-05-11T20:23:57.835Z,96843.45
2019-05-11T20:26:29.241Z,96849.97
2019-05-11T20:29:00.516Z,96848.24
2019-05-11T20:31:32.127Z,96850.30
2019-05-11T20:34:03.532Z,96851.12
2019-05-11T20:36:34.953Z,96855.85
2019-05-11T20:39:08.595Z,96857.98
2019-05-11T20:41:40.200Z,96859.30
2019-05-11T20:44:11.468Z,96862.27
2019-05-11T20:46:42.641Z,96865.23
2019-05-11T20:49:14.300Z,96864.84
2019-05-11T20:51:45.734Z,96865.23
2019-05-11T20:54:17.694Z,96878.11
2019-05-11T20:56:49.148Z,96873.44
2019-05-11T20:59:20.507Z,96875.20
2019-05-11T21:01:51.974Z,96872.17
2019-05-11T21:04:23.547Z,96887.16
2019-05-11T21:06:58.013Z,96883.37
2019-05-11T21:09:29.443Z,96888.58
2019-05-11T21:12:03.069Z,96886.88
2019-05-11T21:14:33.714Z,96888.08
2019-05-11T21:17:08.881Z,96885.92
2019-05-11T21:19:42.433Z,96890.66
2019-05-11T21:22:12.852Z,96891.95
2019-05-11T21:24:44.227Z,96895.42
2019-05-11T21:27:15.568Z,96901.07
2019-05-11T21:29:49.118Z,96901.44
2019-05-11T21:32:19.917Z,96902.73
2019-05-11T21:34:51.407Z,96901.06
2019-05-11T21:37:22.832Z,96908.75
2019-05-11T21:39:54.015Z,96907.48
2019-05-11T21:42:25.272Z,96906.17
2019-05-11T21:44:58.115Z,96917.77
2019-05-11T21:47:29.378Z,96919.08
2019-05-11T21:50:00.545Z,96926.81
2019-05-11T21:52:32.877Z,96926.81
2019-05-11T21:55:04.680Z,96922.95
2019-05-11T21:57:36.034Z,96931.52
2019-05-11T22:00:09.856Z,96933.26
2019-05-11T22:02:42.801Z,96941.38
2019-05-11T22:05:14.514Z,96939.78
2019-05-11T22:07:45.871Z,96943.56
2019-05-11T22:10:17.742Z,96949.56
2019-05-11T22:12:49.239Z,96949.56
2019-05-11T22:15:20.494Z,96951.75
2019-05-11T22:17:51.746Z,96952.55
2019-05-11T22:20:22.967Z,96956.09
2019-05-11T22:22:54.250Z,96956.90
2019-05-11T22:25:25.613Z,96961.66
2019-05-11T22:27:57.624Z,96956.09
2019-05-11T22:30:29.076Z,96950.48
2019-05-11T22:33:00.334Z,96956.08
2019-05-11T22:35:31.778Z,96958.74
2019-05-11T22:38:03.771Z,96961.21
2019-05-11T22:40:35.384Z,96963.79
2019-05-11T22:43:09.173Z,96964.66
2019-05-11T22:45:40.042Z,96964.27
2019-05-11T22:48:11.216Z,96970.23
2019-05-11T22:50:43.899Z,96974.04
2019-05-11T22:53:15.250Z,96981.77
2019-05-11T22:55:48.540Z,96976.23
2019-05-11T22:58:20.132Z,96975.80
2019-05-11T23:00:51.649Z,96974.52
2019-05-11T23:03:23.282Z,96974.91
2019-05-11T23:05:54.884Z,96983.15
2019-05-11T23:08:27.429Z,96988.30
2019-05-11T23:10:59.198Z,96984.41
2019-05-11T23:13:31.184Z,96983.95
2019-05-11T23:16:02.620Z,96985.25
2019-05-11T23:18:34.329Z,96972.30
2019-05-11T23:21:05.638Z,96973.20
2019-05-11T23:23:37.303Z,96977.48
2019-05-11T23:26:08.707Z,96979.16
2019-05-11T23:28:40.102Z,96987.34
2019-05-11T23:31:11.620Z,96986.95
2019-05-11T23:33:42.924Z,96987.83
2019-05-11T23:36:14.234Z,96983.51
2019-05-11T23:38:47.706Z,96987.80
2019-05-11T23:41:24.578Z,96999.33
2019-05-11T23:43:52.278Z,97003.53
2019-05-11T23:46:23.484Z,97004.86
2019-05-11T23:48:54.706Z,97003.61
2019-05-11T23:51:28.074Z,96994.97
2019-05-11T23:53:59.385Z,96994.52
2019-05-11T23:56:31.199Z,96998.80
2019-05-11T23:59:02.584Z,96999.25
